Aeroporto :
LOGIN :

Iscrizione | Disclaimer

   EN    FR    IT 

 










Sommario :    VFR   VFR Marginale   IFR   IFR Intensivo   IFR Molto Intensivo
Visibilità : 
Base nubi : 
>= 8 km
>= 3000ft
5 / 8 km
1000 / 3000 ft
1500m / 5 km
500 / 1000 ft
800 / 1500m
200 / 500 ft
< 800m
< 200 ft
Simboli :   Temporali  Nebbia  Neve Forte  Precipitazioni Forti  Vento > 20 kt
SIGMETs :   Varie  Temporali  Ghiacco  Turbolenza  Onda orograficha  Ceneri Vulcaniche






- Altitudine del aeroporto : 120 ft
- Codice IATA : MME


EGNV - Durham Tees valley

ULTIMO METAR :
  • 171150Z 24023G33KT 9999 SCT026 08/03 Q0998

METARs OBSOLETI :
  • 171120Z 24019KT 9999 SCT025 09/04 Q0997
  • 171050Z 24020KT 9999 SCT025 08/04 Q0997
  • 171020Z 24023KT 9999 SCT025 08/04 Q0996
  • 170950Z 24020G30KT 9999 FEW016 SCT025 07/03 Q0995
  • 170920Z 23021KT 9999 FEW018 BKN025 07/03 Q0995

TAF TAF EGNV
Valido dal 17 a 12 ore il 17 a 21 ore UTC


171102Z 1712/1721 25020G35KT 9999 SCT025
PROB30
TEMPO 1712/1721 6000 SHRA BKN014
ATIS : +44 9012 018 111



MetMap, La meteo Aeronautica in un colpo d'occhio ! - Copyright ORBIFLY Dicembre 2007 - Disclaimer

ORBIFLY MET'MAP TEAM :

Programmazione e sviluppo : Alexandra Zaïnal
Concezione : Baudouin d'Aumeries
Aiuto per la programmazione : Marc-Olivier Méhu
Supporto tecnico e logistico : Manuel Goepfert
Aiuto per la traduzione : Arnaldo La Scala

Contatto : metmap@orbifly.com




FONTI E CREDITI :

   NOAA